Brodhead, Wisconsin
Current Conditions -  °F | °C
As of 11:35 PM on Sunday 21 Dec 2014 (Local Time) from KEFT Reporting Station
Overcast Overcast  
Wind Chill: 24°   Ceiling: 2300
Heat Index: 34°   Visibility: 10mi
Dew Point: 32°   Wind: 14mph
Humidity: 93%   Direction: 160°SSE
Pressure: 29.93"   Gusts: 18mph
Location:  42.62°N, 89.38°W
Report Text: KEFT 220535Z AUTO 16012G16KT 10SM BKN023 OVC039 01/00 A2993 RMK AO2
Loading
Personal Weather Stations






























Interactive Weather Map New forecast layout! Learn more

10-Day Weather Forecast

Advertisements
Track Severe Weather on mobile